Time;durP1;ratioP1;P1;durP2;ratioP2;P2;SDS_P1;SDS_P2;PMS_P1;PMS_P2;Temp;Humidity;BMP_temperature;BMP_pressure;BME280_temperature;BME280_humidity;BME280_pressure;Samples;Min_cycle;Max_cycle;Signal;HPM_P1;HPM_P2
2022/01/15 00:01:16;;;;;;;0.20;0.20;;;6.70;99.90;;;;;;5012136;28;20163;-82
2022/01/15 00:03:42;;;;;;;0.20;0.20;;;6.70;99.90;;;;;;4996431;28;20037;-83
2022/01/15 00:06:07;;;;;;;0.20;0.20;;;6.70;99.90;;;;;;5001257;28;20092;-82
2022/01/15 00:08:33;;;;;;;0.22;0.22;;;6.70;99.90;;;;;;5011813;28;20057;-82
2022/01/15 00:10:59;;;;;;;0.20;0.20;;;6.70;99.90;;;;;;5026610;28;20533;-82
2022/01/15 00:13:28;;;;;;;0.20;0.20;;;6.70;99.90;;;;;;5010586;28;20105;-82
2022/01/15 00:16:14;;;;;;;0.75;0.75;;;6.70;99.90;;;;;;4996071;28;20049;-82
2022/01/15 00:18:43;;;;;;;0.20;0.20;;;6.70;99.90;;;;;;4998770;28;20052;-82
2022/01/15 00:21:10;;;;;;;0.20;0.20;;;6.70;99.90;;;;;;5014498;28;20046;-82
2022/01/15 00:23:36;;;;;;;0.20;0.20;;;6.70;99.90;;;;;;5015238;28;20653;-82
2022/01/15 00:26:02;;;;;;;0.20;0.20;;;6.70;99.90;;;;;;5004360;28;20045;-82
2022/01/15 00:28:28;;;;;;;0.20;0.20;;;6.70;99.90;;;;;;5014268;28;20081;-82
2022/01/15 00:30:53;;;;;;;0.20;0.20;;;6.70;99.90;;;;;;4999907;28;20505;-82
2022/01/15 00:33:19;;;;;;;0.30;0.30;;;6.70;99.90;;;;;;4997340;28;20041;-82
2022/01/15 00:35:45;;;;;;;0.10;0.10;;;6.70;99.90;;;;;;5013237;28;20045;-82
2022/01/15 00:38:10;;;;;;;0.20;0.20;;;6.70;99.90;;;;;;5020768;28;20045;-82
2022/01/15 00:40:36;;;;;;;0.35;0.35;;;6.70;99.90;;;;;;5029498;28;20191;-82
2022/01/15 00:43:02;;;;;;;0.82;0.82;;;6.70;99.90;;;;;;5030276;28;20469;-82
2022/01/15 00:45:32;;;;;;;1.00;0.98;;;6.70;99.90;;;;;;5023694;28;20056;-82
2022/01/15 00:47:58;;;;;;;0.70;0.63;;;6.70;99.90;;;;;;5017566;28;20042;-82
2022/01/15 00:50:24;;;;;;;0.20;0.20;;;6.70;99.90;;;;;;5008324;28;20132;-82
2022/01/15 00:52:49;;;;;;;0.43;0.43;;;6.60;99.90;;;;;;4995945;28;20120;-81
2022/01/15 00:55:17;;;;;;;0.20;0.20;;;6.60;99.90;;;;;;5016803;28;20128;-82
2022/01/15 00:57:42;;;;;;;6.50;0.85;;;6.60;99.90;;;;;;5003254;28;20049;-82
2022/01/15 01:00:10;;;;;;;1.20;1.17;;;6.60;99.90;;;;;;5013481;28;20107;-82
2022/01/15 01:02:36;;;;;;;1.20;1.00;;;6.60;99.90;;;;;;5029344;28;20445;-82
2022/01/15 01:05:01;;;;;;;0.85;0.85;;;6.60;99.90;;;;;;5006123;28;20083;-82
2022/01/15 01:07:27;;;;;;;1.85;1.55;;;6.60;99.90;;;;;;4997681;28;20074;-82
2022/01/15 01:10:13;;;;;;;0.20;0.20;;;6.60;99.90;;;;;;5017112;28;20042;-82
2022/01/15 01:23:14;;;;;;;0.95;0.95;;;6.50;99.90;;;;;;5011515;28;20132;-82
2022/01/15 01:25:44;;;;;;;0.63;0.63;;;6.50;99.90;;;;;;5009840;28;20141;-82
2022/01/15 01:28:21;;;;;;;3.35;1.75;;;6.50;99.90;;;;;;5003694;28;20415;-82
2022/01/15 01:31:35;;;;;;;0.43;0.43;;;6.50;99.90;;;;;;5001758;28;20075;-82
2022/01/15 01:33:39;;;;;;;0.63;0.63;;;6.50;99.90;;;;;;4996222;28;20050;-82
2022/01/15 01:36:23;;;;;;;0.40;0.40;;;6.50;99.90;;;;;;5014380;28;20056;-83
2022/01/15 01:38:55;;;;;;;0.20;0.20;;;6.50;99.90;;;;;;4992772;28;20044;-82
2022/01/15 01:41:23;;;;;;;0.65;0.65;;;6.50;99.90;;;;;;4993783;28;20045;-83
2022/01/15 01:43:57;;;;;;;0.68;0.68;;;6.50;99.90;;;;;;4990739;28;20082;-82
2022/01/15 01:48:49;;;;;;;0.30;0.30;;;6.50;99.90;;;;;;5007584;28;20093;-82
2022/01/15 01:51:39;;;;;;;0.20;0.20;;;6.40;99.90;;;;;;4995611;28;20057;-83
2022/01/15 01:54:08;;;;;;;0.40;0.40;;;6.40;99.90;;;;;;5015918;28;20045;-82
2022/01/15 01:56:35;;;;;;;0.43;0.43;;;6.40;99.90;;;;;;4995335;28;20073;-82
2022/01/15 01:59:01;;;;;;;0.20;0.20;;;6.40;99.90;;;;;;5013357;28;20199;-82
2022/01/15 02:01:27;;;;;;;0.20;0.20;;;6.40;99.90;;;;;;5008460;28;20057;-82
2022/01/15 02:03:53;;;;;;;0.10;0.10;;;6.30;99.90;;;;;;5000497;28;20045;-82
2022/01/15 02:06:20;;;;;;;0.20;0.20;;;6.40;99.90;;;;;;4992570;28;20052;-82
2022/01/15 02:08:47;;;;;;;0.85;0.55;;;6.30;99.90;;;;;;4993329;28;20093;-82
2022/01/15 02:11:13;;;;;;;0.20;0.20;;;6.40;99.90;;;;;;5006227;28;20092;-82
2022/01/15 02:13:43;;;;;;;0.40;0.40;;;6.30;99.90;;;;;;5009870;28;20046;-82
2022/01/15 02:16:10;;;;;;;0.22;0.22;;;6.30;99.90;;;;;;5004490;28;20081;-82
2022/01/15 02:18:36;;;;;;;0.10;0.10;;;6.40;99.90;;;;;;4998514;28;20034;-82
2022/01/15 02:23:34;;;;;;;0.17;0.17;;;6.30;99.90;;;;;;5018578;28;20053;-83
2022/01/15 02:26:05;;;;;;;0.20;0.20;;;6.30;99.90;;;;;;5003557;28;20505;-82
2022/01/15 02:28:39;;;;;;;0.20;0.20;;;6.30;99.90;;;;;;4993178;28;20045;-81
2022/01/15 02:31:12;;;;;;;0.20;0.20;;;6.30;99.90;;;;;;4992228;28;20055;-82
2022/01/15 02:33:38;;;;;;;0.40;0.40;;;6.30;99.90;;;;;;5015609;28;20045;-82
2022/01/15 02:36:07;;;;;;;0.30;0.30;;;6.30;99.90;;;;;;4991380;28;20053;-82
2022/01/15 02:38:32;;;;;;;0.20;0.20;;;6.30;99.90;;;;;;5007223;28;20041;-82
2022/01/15 02:40:58;;;;;;;0.30;0.30;;;6.30;99.90;;;;;;5021720;28;20410;-82
2022/01/15 02:43:33;;;;;;;0.20;0.20;;;6.40;99.90;;;;;;5001681;28;20045;-82
2022/01/15 02:46:19;;;;;;;0.20;0.20;;;6.40;99.90;;;;;;5014715;28;20144;-82
2022/01/15 02:48:51;;;;;;;0.20;0.20;;;6.30;99.90;;;;;;5001297;28;20427;-83
2022/01/15 02:51:18;;;;;;;5.82;1.00;;;6.30;99.90;;;;;;5001108;28;20665;-82
2022/01/15 02:53:45;;;;;;;0.50;0.50;;;6.30;99.90;;;;;;5002007;28;20503;-83
2022/01/15 02:56:10;;;;;;;0.60;0.60;;;6.30;99.90;;;;;;4998669;28;20046;-82
2022/01/15 02:58:36;;;;;;;0.25;0.25;;;6.30;99.90;;;;;;5003643;28;20108;-83
2022/01/15 03:01:02;;;;;;;0.20;0.20;;;6.30;99.90;;;;;;5012397;28;20144;-82
2022/01/15 03:03:28;;;;;;;0.32;0.32;;;6.30;99.90;;;;;;4998843;28;20049;-83
2022/01/15 03:05:53;;;;;;;0.20;0.20;;;6.30;99.90;;;;;;4998836;28;20103;-83
2022/01/15 03:08:19;;;;;;;0.20;0.20;;;6.30;99.90;;;;;;5028839;28;20036;-83
2022/01/15 03:10:46;;;;;;;0.20;0.20;;;6.30;99.90;;;;;;5017343;28;20045;-83
2022/01/15 03:13:13;;;;;;;0.20;0.20;;;6.30;99.90;;;;;;4985904;28;20502;-83
2022/01/15 03:15:40;;;;;;;0.20;0.20;;;6.30;99.90;;;;;;4991805;28;20038;-83
2022/01/15 03:18:06;;;;;;;0.20;0.20;;;6.30;99.90;;;;;;5010219;28;20041;-82
2022/01/15 03:20:32;;;;;;;0.20;0.20;;;6.30;99.90;;;;;;5014538;28;20038;-82
2022/01/15 03:22:58;;;;;;;0.28;0.28;;;6.30;99.90;;;;;;4993732;28;20057;-82
2022/01/15 03:25:23;;;;;;;0.20;0.20;;;6.30;99.90;;;;;;5016137;28;20038;-82
2022/01/15 03:27:49;;;;;;;0.20;0.20;;;6.30;99.90;;;;;;5013075;28;20077;-83
2022/01/15 03:30:15;;;;;;;0.20;0.20;;;6.30;99.90;;;;;;4991115;28;20050;-82
2022/01/15 03:32:44;;;;;;;4.35;0.70;;;6.30;99.90;;;;;;5000932;28;20529;-83
2022/01/15 03:35:12;;;;;;;0.20;0.20;;;6.30;99.90;;;;;;4993791;28;20052;-82
2022/01/15 03:37:38;;;;;;;10.57;9.82;;;6.30;99.90;;;;;;5032162;28;20041;-82
2022/01/15 03:40:05;;;;;;;1.88;0.68;;;6.30;99.90;;;;;;5011035;28;20426;-82
2022/01/15 03:42:30;;;;;;;0.35;0.35;;;6.30;99.90;;;;;;5007662;28;20049;-82
2022/01/15 03:44:56;;;;;;;5.53;2.17;;;6.30;99.90;;;;;;5009453;28;20092;-82
2022/01/15 03:47:21;;;;;;;0.98;0.98;;;6.30;99.90;;;;;;4999435;28;20047;-82
2022/01/15 03:49:47;;;;;;;0.30;0.30;;;6.30;99.90;;;;;;4990431;28;20405;-82
2022/01/15 03:52:13;;;;;;;0.98;0.98;;;6.30;99.90;;;;;;5002318;28;20046;-82
2022/01/15 03:54:38;;;;;;;0.20;0.20;;;6.30;99.90;;;;;;5011912;28;20050;-83
2022/01/15 03:57:05;;;;;;;0.30;0.30;;;6.30;99.90;;;;;;5017801;28;20041;-83
2022/01/15 03:59:31;;;;;;;0.20;0.20;;;6.30;99.90;;;;;;5022781;28;20047;-82
2022/01/15 04:01:56;;;;;;;0.20;0.20;;;6.30;99.90;;;;;;4996542;28;20045;-82
2022/01/15 04:04:22;;;;;;;0.17;0.17;;;6.30;99.90;;;;;;4989083;28;20120;-83
2022/01/15 04:06:48;;;;;;;2.92;2.03;;;6.30;99.90;;;;;;5026618;28;20045;-82
2022/01/15 04:09:13;;;;;;;0.20;0.20;;;6.30;99.90;;;;;;5007140;28;20092;-82
2022/01/15 04:11:40;;;;;;;0.20;0.20;;;6.30;99.90;;;;;;5017340;28;20045;-82
2022/01/15 04:14:06;;;;;;;0.20;0.20;;;6.30;99.90;;;;;;4999185;28;20096;-82
2022/01/15 04:16:32;;;;;;;0.20;0.20;;;6.30;99.90;;;;;;5023804;28;20049;-83
2022/01/15 04:18:59;;;;;;;1.40;1.30;;;6.30;99.90;;;;;;5010204;28;20033;-83
2022/01/15 04:21:26;;;;;;;0.90;0.60;;;6.30;99.90;;;;;;4991864;28;20089;-82
2022/01/15 04:23:51;;;;;;;0.20;0.20;;;6.30;99.90;;;;;;5008495;28;20114;-82
2022/01/15 04:26:22;;;;;;;0.20;0.20;;;6.30;99.90;;;;;;4988757;28;20045;-82
2022/01/15 04:28:48;;;;;;;0.20;0.20;;;6.20;99.90;;;;;;5014411;28;20041;-82
2022/01/15 04:31:14;;;;;;;0.20;0.20;;;6.20;99.90;;;;;;5007247;28;20061;-82
2022/01/15 04:33:40;;;;;;;0.13;0.13;;;6.20;99.90;;;;;;4994969;28;20041;-82
2022/01/15 04:36:07;;;;;;;1.98;0.68;;;6.20;99.90;;;;;;4991544;28;20042;-82
2022/01/15 04:38:37;;;;;;;0.43;0.43;;;6.20;99.90;;;;;;5023410;28;20136;-82
2022/01/15 04:41:03;;;;;;;0.20;0.20;;;6.20;99.90;;;;;;5013022;28;20045;-82
2022/01/15 04:43:29;;;;;;;2.35;0.68;;;6.20;99.90;;;;;;4995974;28;20050;-82
2022/01/15 04:45:54;;;;;;;1.02;0.65;;;6.20;99.90;;;;;;5026115;28;20058;-82
2022/01/15 04:48:20;;;;;;;0.90;0.85;;;6.20;99.90;;;;;;4999589;28;20045;-82
2022/01/15 04:50:46;;;;;;;0.35;0.35;;;6.20;99.90;;;;;;5009402;28;20057;-82
2022/01/15 04:53:12;;;;;;;0.20;0.20;;;6.20;99.90;;;;;;5012892;28;20045;-82
2022/01/15 04:55:38;;;;;;;0.20;0.20;;;6.20;99.90;;;;;;5013287;28;20049;-82
2022/01/15 04:58:05;;;;;;;0.20;0.20;;;6.20;99.90;;;;;;5010846;28;20120;-83
2022/01/15 05:00:31;;;;;;;0.43;0.43;;;6.20;99.90;;;;;;5008102;28;20106;-82
2022/01/15 05:02:57;;;;;;;0.20;0.20;;;6.20;99.90;;;;;;5012896;28;20045;-82
2022/01/15 05:05:24;;;;;;;0.30;0.30;;;6.20;99.90;;;;;;5013101;28;20048;-82
2022/01/15 05:07:52;;;;;;;3.20;0.70;;;6.20;99.90;;;;;;5010133;28;20057;-82
2022/01/15 05:10:20;;;;;;;0.17;0.17;;;6.20;99.90;;;;;;4995328;28;20050;-82
2022/01/15 05:12:48;;;;;;;0.52;0.52;;;6.20;99.90;;;;;;5013857;28;20037;-83
2022/01/15 05:15:16;;;;;;;0.20;0.20;;;6.10;99.90;;;;;;5009201;28;20050;-82
2022/01/15 05:17:42;;;;;;;0.65;0.65;;;6.10;99.90;;;;;;5011092;28;20118;-82
2022/01/15 05:20:09;;;;;;;0.57;0.57;;;6.10;99.90;;;;;;4997647;28;20057;-82
2022/01/15 05:22:35;;;;;;;0.60;0.60;;;6.10;99.90;;;;;;5002052;28;20681;-82
2022/01/15 05:25:02;;;;;;;0.20;0.20;;;6.10;99.90;;;;;;5017631;28;20103;-82
2022/01/15 05:27:28;;;;;;;0.20;0.20;;;6.10;99.90;;;;;;4998485;28;20057;-82
2022/01/15 05:29:54;;;;;;;0.20;0.20;;;6.10;99.90;;;;;;5011490;28;20048;-82
2022/01/15 05:32:23;;;;;;;0.20;0.20;;;6.10;99.90;;;;;;5013647;28;20049;-82
2022/01/15 05:34:49;;;;;;;8.48;1.38;;;6.10;99.90;;;;;;5012871;28;20083;-82
2022/01/15 05:37:15;;;;;;;0.20;0.20;;;6.10;99.90;;;;;;5024108;28;20041;-82
2022/01/15 05:39:40;;;;;;;0.30;0.30;;;6.10;99.90;;;;;;5009944;28;20046;-82
2022/01/15 05:42:07;;;;;;;0.20;0.20;;;6.10;99.90;;;;;;4996910;28;20056;-82
2022/01/15 05:44:33;;;;;;;0.20;0.20;;;6.10;99.90;;;;;;5024668;28;20115;-82
2022/01/15 05:46:59;;;;;;;3.55;0.57;;;6.10;99.90;;;;;;5005942;28;20045;-82
2022/01/15 05:49:25;;;;;;;0.20;0.20;;;6.10;99.90;;;;;;5017459;28;20040;-82
2022/01/15 05:51:50;;;;;;;0.20;0.20;;;6.10;99.90;;;;;;4993776;28;20104;-82
2022/01/15 05:54:16;;;;;;;0.65;0.65;;;6.10;99.90;;;;;;5021493;28;20046;-82
2022/01/15 05:56:42;;;;;;;0.20;0.20;;;6.00;99.90;;;;;;4989759;28;20513;-82
2022/01/15 05:59:08;;;;;;;0.20;0.20;;;6.00;99.90;;;;;;5002103;28;20100;-82
2022/01/15 06:01:35;;;;;;;0.40;0.40;;;6.00;99.90;;;;;;5010580;28;20450;-82
2022/01/15 06:04:01;;;;;;;0.43;0.43;;;6.00;99.90;;;;;;5023387;28;20034;-82
2022/01/15 06:06:27;;;;;;;1.13;1.05;;;6.00;99.90;;;;;;4993542;28;20049;-82
2022/01/15 06:08:52;;;;;;;0.40;0.40;;;6.00;99.90;;;;;;5010491;28;20041;-82
2022/01/15 06:11:18;;;;;;;1.00;0.90;;;6.00;99.90;;;;;;4990909;28;20102;-82
2022/01/15 06:13:45;;;;;;;0.75;0.52;;;6.00;99.90;;;;;;5012239;28;20117;-82
2022/01/15 06:16:11;;;;;;;0.20;0.20;;;5.90;99.90;;;;;;5013589;28;20194;-82
2022/01/15 06:18:37;;;;;;;0.63;0.63;;;5.90;99.90;;;;;;4993195;28;20030;-83
2022/01/15 06:21:03;;;;;;;1.55;1.08;;;5.90;99.90;;;;;;5000615;28;20099;-82
2022/01/15 06:23:28;;;;;;;0.20;0.20;;;5.90;99.90;;;;;;4997372;28;20050;-82
2022/01/15 06:25:54;;;;;;;0.40;0.40;;;5.90;99.90;;;;;;5009315;28;20045;-82
2022/01/15 06:28:19;;;;;;;0.20;0.20;;;5.90;99.90;;;;;;5016028;28;20049;-83
2022/01/15 06:30:45;;;;;;;0.30;0.30;;;5.90;99.90;;;;;;5001712;28;20045;-82
2022/01/15 06:33:11;;;;;;;0.38;0.38;;;5.90;99.90;;;;;;4997390;28;20045;-82
2022/01/15 06:35:36;;;;;;;0.35;0.35;;;5.80;99.90;;;;;;5012320;28;20498;-82
2022/01/15 06:38:02;;;;;;;0.20;0.20;;;5.80;99.90;;;;;;5025498;28;20080;-81
2022/01/15 06:40:28;;;;;;;0.55;0.43;;;5.80;99.90;;;;;;4996724;28;20041;-82
2022/01/15 06:42:53;;;;;;;0.75;0.52;;;5.80;99.90;;;;;;5006440;28;20041;-82
2022/01/15 06:45:19;;;;;;;0.20;0.20;;;5.80;99.90;;;;;;4998436;28;20099;-82
2022/01/15 06:47:45;;;;;;;0.47;0.47;;;5.80;99.90;;;;;;5009476;28;20052;-82
2022/01/15 06:50:11;;;;;;;1.25;1.15;;;5.80;99.90;;;;;;4996550;28;20046;-83
2022/01/15 06:52:38;;;;;;;0.73;0.73;;;5.80;99.90;;;;;;4992616;28;20064;-82
2022/01/15 06:55:05;;;;;;;0.30;0.30;;;5.80;99.90;;;;;;4997041;28;20045;-81
2022/01/15 06:57:31;;;;;;;0.30;0.30;;;5.80;99.90;;;;;;5000544;28;20052;-82
2022/01/15 06:59:57;;;;;;;1.05;0.95;;;5.80;99.90;;;;;;5005130;28;20046;-82
2022/01/15 07:02:22;;;;;;;0.20;0.20;;;5.80;99.90;;;;;;4981907;28;20086;-82
2022/01/15 07:04:48;;;;;;;0.77;0.77;;;5.80;99.90;;;;;;5004980;28;20041;-82
2022/01/15 07:07:14;;;;;;;1.50;1.20;;;5.80;99.90;;;;;;4992722;28;20045;-82
2022/01/15 07:09:39;;;;;;;1.60;0.65;;;5.70;99.90;;;;;;5009585;28;20037;-82
2022/01/15 07:12:05;;;;;;;0.32;0.32;;;5.70;99.90;;;;;;4986227;28;20518;-82
2022/01/15 07:14:31;;;;;;;0.20;0.20;;;5.70;99.90;;;;;;5013255;28;20042;-82
2022/01/15 07:16:57;;;;;;;0.82;0.40;;;5.70;99.90;;;;;;4993568;28;20046;-82
2022/01/15 07:19:22;;;;;;;0.30;0.30;;;5.70;99.90;;;;;;4991117;28;20056;-82
2022/01/15 07:21:48;;;;;;;0.20;0.20;;;5.70;99.90;;;;;;4993204;28;20042;-82
2022/01/15 07:24:16;;;;;;;0.98;0.93;;;5.70;99.90;;;;;;4992820;28;20092;-82
2022/01/15 07:26:42;;;;;;;1.17;1.08;;;5.70;99.90;;;;;;5013112;28;20077;-82
2022/01/15 07:29:14;;;;;;;1.45;0.75;;;5.70;99.90;;;;;;4998499;28;20077;-82
2022/01/15 07:31:40;;;;;;;0.50;0.50;;;5.70;99.90;;;;;;4995738;28;20046;-82
2022/01/15 07:34:06;;;;;;;0.93;0.93;;;5.70;99.90;;;;;;4987424;28;20426;-82
2022/01/15 07:36:32;;;;;;;0.30;0.30;;;5.70;99.90;;;;;;4979167;28;20121;-82
2022/01/15 07:38:58;;;;;;;3.85;0.47;;;5.70;99.90;;;;;;5011281;28;20480;-82
2022/01/15 07:41:23;;;;;;;0.20;0.20;;;5.70;99.90;;;;;;5020044;28;20038;-82
2022/01/15 07:43:49;;;;;;;0.50;0.50;;;5.60;99.90;;;;;;5012698;28;20079;-82
2022/01/15 07:46:15;;;;;;;1.48;1.17;;;5.70;99.90;;;;;;5001855;28;20054;-82
2022/01/15 07:48:40;;;;;;;0.82;0.75;;;5.70;99.90;;;;;;5008948;28;20129;-82
2022/01/15 07:51:07;;;;;;;0.75;0.75;;;5.70;99.90;;;;;;5008692;28;20085;-82
2022/01/15 07:53:33;;;;;;;0.68;0.68;;;5.70;99.90;;;;;;5012227;28;20046;-82
2022/01/15 07:55:59;;;;;;;0.43;0.43;;;5.70;99.90;;;;;;5010506;28;20060;-82
2022/01/15 07:58:24;;;;;;;1.70;1.35;;;5.70;99.90;;;;;;5010801;28;20045;-82
2022/01/15 08:00:50;;;;;;;0.40;0.40;;;5.70;99.90;;;;;;5012762;28;20057;-82
2022/01/15 08:03:16;;;;;;;1.48;0.90;;;5.70;99.90;;;;;;4994155;28;20050;-82
2022/01/15 08:05:41;;;;;;;0.30;0.30;;;5.70;99.90;;;;;;5031729;28;20489;-82
2022/01/15 08:08:07;;;;;;;1.60;1.08;;;5.70;99.90;;;;;;5013437;28;20112;-82
2022/01/15 08:10:33;;;;;;;1.95;1.20;;;5.70;99.90;;;;;;5010988;28;20050;-83
2022/01/15 08:12:59;;;;;;;4.03;1.92;;;5.80;99.90;;;;;;5011918;28;20053;-82
2022/01/15 08:15:25;;;;;;;2.47;1.58;;;5.70;99.90;;;;;;4995668;28;20510;-82
2022/01/15 08:17:51;;;;;;;2.25;1.55;;;5.80;99.90;;;;;;5026823;28;20112;-82
2022/01/15 08:20:17;;;;;;;1.38;1.02;;;5.80;99.90;;;;;;5001321;28;20152;-82
2022/01/15 08:22:45;;;;;;;1.42;1.23;;;5.80;99.90;;;;;;5011530;28;20142;-82
2022/01/15 08:25:13;;;;;;;0.80;0.80;;;5.80;99.90;;;;;;5008922;28;20077;-83
2022/01/15 08:27:39;;;;;;;1.60;1.13;;;5.80;99.90;;;;;;5015180;28;20192;-82
2022/01/15 08:30:07;;;;;;;4.60;2.53;;;5.80;99.90;;;;;;4994695;28;20042;-82
2022/01/15 08:32:32;;;;;;;3.85;2.47;;;5.80;99.90;;;;;;5011756;28;20053;-82
2022/01/15 08:34:58;;;;;;;0.50;0.50;;;5.80;99.90;;;;;;5011269;28;20045;-82
2022/01/15 08:37:24;;;;;;;1.35;0.80;;;5.80;99.90;;;;;;4996186;28;20132;-83
2022/01/15 08:39:49;;;;;;;3.45;1.02;;;5.80;99.90;;;;;;5010908;28;20329;-81
2022/01/15 08:42:15;;;;;;;7.22;3.83;;;5.80;99.90;;;;;;4994720;28;20081;-82
2022/01/15 08:44:43;;;;;;;4.38;2.20;;;5.80;99.90;;;;;;4995317;28;20046;-82
2022/01/15 08:47:09;;;;;;;4.15;2.17;;;5.80;99.90;;;;;;4995075;28;20037;-82
2022/01/15 08:49:36;;;;;;;1.73;1.63;;;5.80;99.90;;;;;;4997171;28;20041;-82
2022/01/15 08:52:03;;;;;;;0.85;0.85;;;5.70;99.90;;;;;;5006333;28;20042;-83
2022/01/15 08:54:28;;;;;;;1.90;1.45;;;5.70;99.90;;;;;;5026786;28;20039;-82
2022/01/15 08:56:55;;;;;;;1.83;0.90;;;5.70;99.90;;;;;;5031069;28;20076;-82
2022/01/15 08:59:21;;;;;;;3.70;2.05;;;5.70;99.90;;;;;;5010371;28;20100;-83
2022/01/15 09:01:48;;;;;;;7.22;3.70;;;5.70;99.90;;;;;;5006612;28;20049;-83
2022/01/15 09:04:14;;;;;;;3.63;2.03;;;5.70;99.90;;;;;;5013198;28;20649;-82
2022/01/15 09:06:40;;;;;;;6.88;2.10;;;5.70;99.90;;;;;;4992088;28;20048;-82
2022/01/15 09:09:06;;;;;;;1.45;0.98;;;5.70;99.90;;;;;;5005487;28;20053;-82
2022/01/15 09:11:31;;;;;;;1.60;1.33;;;5.70;99.90;;;;;;4999130;28;20096;-81
2022/01/15 09:13:57;;;;;;;5.18;1.92;;;5.70;99.90;;;;;;4994816;28;20046;-82
2022/01/15 09:16:23;;;;;;;1.77;1.55;;;5.70;99.90;;;;;;5023388;28;20414;-82
2022/01/15 09:18:49;;;;;;;1.83;1.65;;;5.80;99.90;;;;;;5018757;28;20037;-82
2022/01/15 09:21:16;;;;;;;5.18;2.53;;;5.80;99.90;;;;;;5002273;28;20050;-82
2022/01/15 09:23:42;;;;;;;2.72;1.52;;;5.80;99.90;;;;;;5015501;28;20045;-82
2022/01/15 09:26:18;;;;;;;3.40;1.90;;;5.80;99.90;;;;;;4995149;28;20041;-82
2022/01/15 09:31:29;;;;;;;3.65;2.20;;;5.70;99.90;;;;;;5016531;28;20050;-82
2022/01/15 09:33:55;;;;;;;2.78;1.77;;;5.70;99.90;;;;;;4998689;28;20096;-82
2022/01/15 09:36:20;;;;;;;5.95;2.88;;;5.70;99.90;;;;;;4994109;28;20453;-82
2022/01/15 09:38:46;;;;;;;6.05;2.75;;;5.70;99.90;;;;;;5016326;28;20072;-82
2022/01/15 09:41:13;;;;;;;3.25;2.42;;;5.70;99.90;;;;;;4998330;28;20107;-83
2022/01/15 09:43:39;;;;;;;3.90;2.88;;;5.70;99.90;;;;;;4991794;28;20038;-83
2022/01/15 09:46:06;;;;;;;2.45;2.05;;;5.70;99.90;;;;;;5008304;28;20038;-82
2022/01/15 09:48:33;;;;;;;2.45;2.25;;;5.70;99.90;;;;;;4999082;28;20042;-82
2022/01/15 09:51:00;;;;;;;2.60;1.90;;;5.70;99.90;;;;;;5003413;28;20033;-83
2022/01/15 09:53:25;;;;;;;6.53;3.60;;;5.70;99.90;;;;;;5001377;28;20041;-82
2022/01/15 09:55:52;;;;;;;3.60;2.33;;;5.70;99.90;;;;;;4998060;28;20141;-83
2022/01/15 09:58:18;;;;;;;0.50;0.50;;;5.70;99.90;;;;;;4993603;28;20041;-83
2022/01/15 10:00:44;;;;;;;1.13;1.08;;;5.70;99.90;;;;;;5016207;28;20498;-82
2022/01/15 10:03:10;;;;;;;2.20;1.85;;;5.80;99.90;;;;;;5010406;28;20438;-83
2022/01/15 10:05:36;;;;;;;4.32;2.83;;;5.80;99.90;;;;;;4989668;28;20084;-82
2022/01/15 10:08:09;;;;;;;4.20;2.25;;;5.80;99.90;;;;;;4999827;28;20178;-83
2022/01/15 10:10:36;;;;;;;9.15;5.05;;;5.80;99.90;;;;;;5007093;28;20669;-82
2022/01/15 10:13:11;;;;;;;0.90;0.60;;;5.80;99.90;;;;;;4989602;28;20052;-83
2022/01/15 10:15:36;;;;;;;3.25;2.70;;;5.80;99.90;;;;;;5001120;28;20212;-83
2022/01/15 10:18:20;;;;;;;1.55;1.35;;;5.80;99.90;;;;;;5025649;28;20620;-83
2022/01/15 10:20:45;;;;;;;5.22;2.78;;;5.70;99.90;;;;;;5011148;28;20049;-82
2022/01/15 10:23:19;;;;;;;2.28;2.08;;;5.70;99.90;;;;;;4989546;28;20129;-83
2022/01/15 10:26:05;;;;;;;5.40;3.35;;;5.70;99.90;;;;;;4998788;28;20050;-83
2022/01/15 10:28:52;;;;;;;7.65;4.45;;;5.70;99.90;;;;;;5003733;28;20134;-82
2022/01/15 10:31:19;;;;;;;5.18;2.53;;;5.60;99.90;;;;;;5018004;28;20052;-83
2022/01/15 10:33:45;;;;;;;8.82;2.78;;;5.60;99.90;;;;;;5000145;28;20069;-83
2022/01/15 10:36:37;;;;;;;3.13;2.20;;;5.60;99.90;;;;;;4999120;28;20068;-83
2022/01/15 10:39:16;;;;;;;6.30;1.92;;;5.60;99.90;;;;;;4993577;28;20056;-83
2022/01/15 10:41:42;;;;;;;5.15;3.67;;;5.60;99.90;;;;;;5009064;28;20548;-83
2022/01/15 10:44:33;;;;;;;6.53;4.07;;;5.60;99.90;;;;;;4988607;28;20046;-82
2022/01/15 10:47:12;;;;;;;2.25;1.30;;;5.60;99.90;;;;;;4997540;28;20103;-82
2022/01/15 10:49:39;;;;;;;3.50;2.15;;;5.60;99.90;;;;;;4986743;28;20046;-82
2022/01/15 10:52:06;;;;;;;6.68;3.20;;;5.60;99.90;;;;;;4999971;28;20069;-82
2022/01/15 10:54:34;;;;;;;6.07;2.78;;;5.60;99.90;;;;;;5010593;28;20398;-82
2022/01/15 10:57:10;;;;;;;6.70;3.72;;;5.50;99.90;;;;;;4986162;28;20074;-84
2022/01/15 10:59:36;;;;;;;4.85;2.67;;;5.50;99.90;;;;;;4989004;28;20046;-82
2022/01/15 11:02:22;;;;;;;5.15;3.25;;;5.50;99.90;;;;;;4979273;28;20076;-82
2022/01/15 11:04:48;;;;;;;3.50;2.60;;;5.60;99.90;;;;;;4987915;28;20050;-83
2022/01/15 11:07:15;;;;;;;3.08;2.45;;;5.50;99.90;;;;;;4980014;28;20042;-83
2022/01/15 11:09:46;;;;;;;3.78;1.75;;;5.60;99.90;;;;;;5012275;28;20125;-83
2022/01/15 11:12:12;;;;;;;3.10;1.50;;;5.60;99.90;;;;;;5003300;28;20085;-83
2022/01/15 11:14:39;;;;;;;12.43;5.07;;;5.60;99.90;;;;;;4995858;28;20049;-83
2022/01/15 11:17:05;;;;;;;6.85;4.00;;;5.60;99.90;;;;;;5018299;28;20034;-83
2022/01/15 11:19:33;;;;;;;5.35;3.08;;;5.60;99.90;;;;;;5002776;28;20095;-83
2022/01/15 11:21:59;;;;;;;5.82;3.50;;;5.60;99.90;;;;;;5003779;28;20088;-81
2022/01/15 11:24:25;;;;;;;5.80;3.28;;;5.60;99.90;;;;;;4985149;28;20086;-83
2022/01/15 11:26:54;;;;;;;4.38;2.92;;;5.50;99.90;;;;;;4998042;28;20072;-82
2022/01/15 11:29:21;;;;;;;8.63;4.85;;;5.50;99.90;;;;;;5002769;28;20072;-82
2022/01/15 11:31:50;;;;;;;4.75;2.80;;;5.50;99.90;;;;;;5001250;28;20782;-83
2022/01/15 11:34:19;;;;;;;7.38;3.88;;;5.50;99.90;;;;;;5008368;28;20054;-82
2022/01/15 11:36:46;;;;;;;7.00;3.10;;;5.50;99.90;;;;;;4996393;28;20045;-83
2022/01/15 11:39:33;;;;;;;5.10;3.78;;;5.50;99.90;;;;;;5024474;28;20073;-83
2022/01/15 11:42:02;;;;;;;4.88;3.47;;;5.50;99.90;;;;;;4999396;28;20041;-83
2022/01/15 11:44:33;;;;;;;8.30;4.43;;;5.60;99.90;;;;;;5004731;28;20440;-82
2022/01/15 11:47:21;;;;;;;7.03;3.13;;;5.50;99.90;;;;;;4998527;28;20096;-83
2022/01/15 11:49:54;;;;;;;11.10;5.15;;;5.50;99.90;;;;;;4999167;28;20072;-83
2022/01/15 11:52:23;;;;;;;5.45;3.25;;;5.50;99.90;;;;;;5005277;28;20081;-83
2022/01/15 11:54:49;;;;;;;15.27;6.35;;;5.40;99.90;;;;;;4997973;28;20057;-83
2022/01/15 11:57:34;;;;;;;8.05;4.95;;;5.40;99.90;;;;;;5007794;28;20490;-82
2022/01/15 12:00:05;;;;;;;4.55;2.25;;;5.30;99.90;;;;;;5011368;28;20042;-83
2022/01/15 12:09:53;;;;;;;7.10;4.38;;;5.20;99.90;;;;;;5019801;28;20080;-82
2022/01/15 12:12:34;;;;;;;9.98;4.60;;;5.20;99.90;;;;;;4996426;28;20053;-83
2022/01/15 12:15:01;;;;;;;8.38;3.63;;;5.30;99.90;;;;;;4998848;28;20049;-83
2022/01/15 12:17:40;;;;;;;10.63;4.55;;;5.20;99.90;;;;;;5012906;28;20045;-83
2022/01/15 12:20:26;;;;;;;9.05;4.88;;;5.30;99.90;;;;;;5012658;28;20046;-83
2022/01/15 12:23:23;;;;;;;3.83;3.13;;;5.20;99.90;;;;;;5009411;28;20080;-82
2022/01/15 12:25:56;;;;;;;3.33;2.72;;;5.20;99.90;;;;;;5003002;28;20393;-83
2022/01/15 12:28:24;;;;;;;9.25;5.45;;;5.20;99.90;;;;;;5032472;28;20041;-82
2022/01/15 12:30:52;;;;;;;4.13;2.80;;;5.20;99.90;;;;;;5014198;28;20049;-83
2022/01/15 12:33:19;;;;;;;11.73;5.38;;;5.20;99.90;;;;;;5017715;28;20046;-82
2022/01/15 12:35:50;;;;;;;5.65;2.92;;;5.20;99.90;;;;;;5012437;28;20052;-82
2022/01/15 12:38:28;;;;;;;10.80;2.67;;;5.20;99.90;;;;;;5011079;28;20183;-83
2022/01/15 12:40:55;;;;;;;11.75;5.75;;;5.20;99.90;;;;;;4996341;28;20042;-82
2022/01/15 12:43:29;;;;;;;13.88;4.90;;;5.20;99.90;;;;;;4995912;28;20076;-83
2022/01/15 12:46:16;;;;;;;5.05;2.95;;;5.20;99.90;;;;;;5012331;28;20048;-83
2022/01/15 12:48:44;;;;;;;10.23;4.93;;;5.20;99.90;;;;;;5012600;28;20384;-83
2022/01/15 12:51:18;;;;;;;9.48;4.57;;;5.20;99.90;;;;;;5012416;28;20046;-83
2022/01/15 12:53:50;;;;;;;8.00;4.15;;;5.20;99.90;;;;;;5012328;28;20380;-83
2022/01/15 12:56:18;;;;;;;12.02;6.68;;;5.20;99.90;;;;;;5028668;28;20565;-84
2022/01/15 12:58:44;;;;;;;17.63;9.00;;;5.20;99.90;;;;;;5012038;28;20073;-83
2022/01/15 13:01:11;;;;;;;12.23;5.25;;;5.20;99.90;;;;;;5012250;28;20453;-83
2022/01/15 13:03:38;;;;;;;5.47;2.85;;;5.20;99.90;;;;;;5012467;28;20044;-83
2022/01/15 13:06:06;;;;;;;1.50;1.40;;;5.20;99.90;;;;;;5011151;28;20049;-83
2022/01/15 13:08:42;;;;;;;10.27;4.93;;;5.30;99.90;;;;;;5012070;28;20042;-83
2022/01/15 13:13:42;;;;;;;10.82;6.10;;;5.30;99.90;;;;;;5022113;28;20107;-83
2022/01/15 13:16:10;;;;;;;17.20;7.30;;;5.30;99.90;;;;;;4999081;28;20053;-83
2022/01/15 13:18:40;;;;;;;14.05;6.75;;;5.30;99.90;;;;;;5002998;28;20521;-83
2022/01/15 13:21:17;;;;;;;13.52;6.05;;;5.40;99.90;;;;;;5011441;28;20398;-83
2022/01/15 13:23:45;;;;;;;6.50;4.18;;;5.30;99.90;;;;;;5009533;28;20053;-83
2022/01/15 13:26:14;;;;;;;7.70;5.20;;;5.20;99.90;;;;;;5006186;28;20477;-83
2022/01/15 13:28:41;;;;;;;4.82;4.18;;;5.20;99.90;;;;;;5009980;28;20417;-83